Time;durP1;ratioP1;P1;durP2;ratioP2;P2;SDS_P1;SDS_P2;PMS_P1;PMS_P2;Temp;Humidity;BMP_temperature;BMP_pressure;BME280_temperature;BME280_humidity;BME280_pressure;Samples;Min_cycle;Max_cycle;Signal;HPM_P1;HPM_P2
2023/01/11 00:01:56;;;;;;;12.40;10.18;;;8.60;99.90;;;;;;4953895;28;20613;-77
2023/01/11 00:04:28;;;;;;;10.77;9.73;;;8.60;99.90;;;;;;4972948;28;20045;-77
2023/01/11 00:06:55;;;;;;;11.50;10.30;;;8.60;99.90;;;;;;4956833;28;20042;-76
2023/01/11 00:09:20;;;;;;;11.52;10.43;;;8.60;99.90;;;;;;4956971;28;20552;-76
2023/01/11 00:11:46;;;;;;;12.30;11.10;;;8.70;99.90;;;;;;4956821;28;20038;-76
2023/01/11 00:14:13;;;;;;;11.93;10.65;;;8.70;99.90;;;;;;4946659;28;20075;-76
2023/01/11 00:16:38;;;;;;;12.77;11.38;;;8.70;99.90;;;;;;4956705;28;20050;-77
2023/01/11 00:19:04;;;;;;;11.85;10.27;;;8.70;99.90;;;;;;4972465;28;20037;-77
2023/01/11 00:21:30;;;;;;;11.85;10.40;;;8.70;99.90;;;;;;4956717;28;20031;-76
2023/01/11 00:23:56;;;;;;;12.98;11.63;;;8.70;99.90;;;;;;4971071;28;20097;-77
2023/01/11 00:26:21;;;;;;;12.98;11.63;;;8.80;99.90;;;;;;4955701;28;20038;-78
2023/01/11 00:28:48;;;;;;;13.27;11.38;;;8.80;99.90;;;;;;4970194;28;20038;-77
2023/01/11 00:31:14;;;;;;;12.55;11.07;;;8.80;99.90;;;;;;4964651;28;20070;-77
2023/01/11 00:33:40;;;;;;;11.77;10.38;;;8.80;99.90;;;;;;4969736;28;20082;-78
2023/01/11 00:36:06;;;;;;;13.48;11.85;;;8.80;99.90;;;;;;4955273;28;20038;-76
2023/01/11 00:38:50;;;;;;;13.80;11.65;;;8.90;99.90;;;;;;4968077;28;20051;-76
2023/01/11 00:49:57;;;;;;;12.02;10.82;;;8.90;99.90;;;;;;4908898;29;20058;-76
2023/01/11 00:52:22;;;;;;;12.30;10.98;;;8.90;99.90;;;;;;4941093;28;20051;-76
2023/01/11 00:54:48;;;;;;;11.50;10.30;;;8.90;99.90;;;;;;4956110;28;20047;-77
2023/01/11 00:57:14;;;;;;;12.13;10.55;;;8.90;99.90;;;;;;4967356;28;20035;-76
2023/01/11 00:59:39;;;;;;;12.02;10.90;;;9.00;99.90;;;;;;4956112;28;20042;-76
2023/01/11 01:02:05;;;;;;;13.07;10.80;;;9.00;99.90;;;;;;4970072;28;20676;-76
2023/01/11 01:04:31;;;;;;;12.13;10.85;;;9.00;99.90;;;;;;4971951;28;20059;-76
2023/01/11 01:06:57;;;;;;;12.60;11.27;;;9.00;99.90;;;;;;4968498;28;20118;-76
2023/01/11 01:09:22;;;;;;;12.45;11.15;;;9.00;99.90;;;;;;4960570;28;20677;-76
2023/01/11 01:11:48;;;;;;;11.10;10.00;;;9.10;99.90;;;;;;4969503;28;20039;-77
2023/01/11 01:14:24;;;;;;;12.75;10.43;;;9.10;99.90;;;;;;4971270;28;20509;-77
2023/01/11 01:16:51;;;;;;;12.55;11.25;;;9.10;99.90;;;;;;4972035;28;20039;-76
2023/01/11 01:19:17;;;;;;;11.63;10.52;;;9.10;99.90;;;;;;4955500;28;20519;-77
2023/01/11 01:21:43;;;;;;;15.68;11.35;;;9.20;99.90;;;;;;4953634;28;20039;-76
2023/01/11 01:24:08;;;;;;;13.48;11.40;;;9.20;99.90;;;;;;4970349;28;20078;-76
2023/01/11 01:26:34;;;;;;;13.98;11.57;;;9.20;99.90;;;;;;4954709;28;20043;-76
2023/01/11 01:29:02;;;;;;;13.38;11.23;;;9.20;99.90;;;;;;4955772;28;20130;-76
2023/01/11 01:31:28;;;;;;;13.82;11.48;;;9.20;99.90;;;;;;4953878;28;20039;-76
2023/01/11 01:33:54;;;;;;;13.73;11.68;;;9.30;99.90;;;;;;4970106;28;20035;-76
2023/01/11 01:36:19;;;;;;;12.38;10.85;;;9.30;99.90;;;;;;4968910;28;20035;-76
2023/01/11 01:38:45;;;;;;;14.48;11.38;;;9.20;99.90;;;;;;4972413;28;20042;-76
2023/01/11 01:41:15;;;;;;;14.48;11.68;;;9.20;99.90;;;;;;4973665;28;20030;-76
2023/01/11 01:43:55;;;;;;;15.30;11.35;;;9.30;99.90;;;;;;4959016;28;20038;-77
2023/01/11 01:46:25;;;;;;;14.95;11.02;;;9.30;99.90;;;;;;4957495;28;20050;-77
2023/01/11 01:49:12;;;;;;;16.55;12.00;;;9.30;99.90;;;;;;4954939;28;20038;-76
2023/01/11 01:51:44;;;;;;;14.02;11.27;;;9.40;99.90;;;;;;4974928;28;20047;-77
2023/01/11 01:54:35;;;;;;;12.73;11.02;;;9.40;99.90;;;;;;4975219;28;20074;-77
2023/01/11 01:57:08;;;;;;;12.40;11.15;;;9.40;99.90;;;;;;4974100;28;20031;-77
2023/01/11 01:59:34;;;;;;;;;;;9.50;99.90;;;;;;4976783;28;20481;-77
2023/01/11 02:02:00;;;;;;;11.07;9.82;;;9.50;99.90;;;;;;4958712;28;20009;-77
2023/01/11 02:04:37;;;;;;;14.23;10.63;;;9.50;99.90;;;;;;4959819;28;20043;-77
2023/01/11 02:07:34;;;;;;;13.95;11.00;;;9.50;99.90;;;;;;4974186;28;20046;-77
2023/01/11 02:09:59;;;;;;;13.40;10.75;;;9.50;99.90;;;;;;4971294;28;20130;-77
2023/01/11 02:12:28;;;;;;;12.07;10.32;;;9.50;99.90;;;;;;4974638;28;20142;-78
2023/01/11 02:14:54;;;;;;;14.50;10.52;;;9.50;99.90;;;;;;4975698;28;20074;-78
2023/01/11 02:17:20;;;;;;;13.48;10.63;;;9.60;99.90;;;;;;4975133;28;20093;-77
2023/01/11 02:20:13;;;;;;;12.43;10.15;;;9.60;99.90;;;;;;4957180;28;20090;-77
2023/01/11 02:22:57;;;;;;;11.70;10.30;;;9.60;99.90;;;;;;4959300;28;20041;-78
2023/01/11 02:25:45;;;;;;;12.27;10.05;;;9.60;99.90;;;;;;4958225;28;20517;-77
2023/01/11 02:28:52;;;;;;;14.07;10.65;;;9.60;99.90;;;;;;4957786;28;20069;-78
2023/01/11 02:31:40;;;;;;;16.00;10.43;;;9.60;99.90;;;;;;4952486;28;20043;-78
2023/01/11 02:34:27;;;;;;;10.57;9.02;;;9.60;99.90;;;;;;4959113;28;20041;-77
2023/01/11 02:37:01;;;;;;;12.90;10.10;;;9.60;99.90;;;;;;4975216;28;20446;-77
2023/01/11 02:39:33;;;;;;;11.25;9.10;;;9.60;99.90;;;;;;4956342;28;20094;-77
2023/01/11 02:45:14;;;;;;;9.95;8.20;;;9.70;99.90;;;;;;4973204;28;20078;-77
2023/01/11 02:47:48;;;;;;;10.57;8.52;;;9.70;99.90;;;;;;4974710;28;20043;-78
2023/01/11 02:50:21;;;;;;;9.73;8.68;;;9.70;99.90;;;;;;4957503;28;20102;-77
2023/01/11 02:52:57;;;;;;;;;;;9.70;99.90;;;;;;4974052;28;20035;-77
2023/01/11 02:55:29;;;;;;;8.63;7.55;;;9.70;99.90;;;;;;4974800;28;19925;-77
2023/01/11 02:57:59;;;;;;;13.35;9.05;;;9.70;99.90;;;;;;4974283;28;20035;-77
2023/01/11 03:00:25;;;;;;;9.52;8.25;;;9.70;99.90;;;;;;4957693;28;20462;-77
2023/01/11 03:03:12;;;;;;;8.93;7.25;;;9.80;99.90;;;;;;4969609;28;20067;-78
2023/01/11 03:05:46;;;;;;;10.13;7.43;;;9.80;99.90;;;;;;4938904;29;20043;-77
2023/01/11 03:08:40;;;;;;;9.55;7.05;;;9.80;99.90;;;;;;4938933;29;20498;-77
2023/01/11 03:11:13;;;;;;;9.20;6.55;;;9.80;99.90;;;;;;4959538;28;20485;-77
2023/01/11 03:13:53;;;;;;;8.88;6.93;;;9.80;99.90;;;;;;4957953;28;20039;-77
2023/01/11 03:16:23;;;;;;;11.43;6.72;;;9.80;99.90;;;;;;4955218;28;20135;-77
2023/01/11 03:19:41;;;;;;;6.95;5.70;;;9.80;99.90;;;;;;4973647;28;20035;-78
2023/01/11 03:22:16;;;;;;;8.65;5.95;;;9.90;99.90;;;;;;4951492;28;20050;-77
2023/01/11 03:24:56;;;;;;;7.15;5.80;;;9.90;99.90;;;;;;4973812;28;20047;-76
2023/01/11 03:27:53;;;;;;;8.27;5.80;;;9.90;99.90;;;;;;4973713;28;20086;-77
2023/01/11 03:30:19;;;;;;;8.90;5.50;;;9.90;99.90;;;;;;4973164;28;20042;-77
2023/01/11 03:32:52;;;;;;;8.18;5.47;;;9.90;99.90;;;;;;4972338;28;20041;-77
2023/01/11 03:35:23;;;;;;;6.60;4.70;;;9.90;99.90;;;;;;4957591;28;20039;-77
2023/01/11 03:38:19;;;;;;;6.45;4.75;;;9.90;99.90;;;;;;4973536;28;20121;-77
2023/01/11 03:40:56;;;;;;;6.20;4.15;;;10.00;99.90;;;;;;4955685;28;20125;-77
2023/01/11 03:43:24;;;;;;;5.45;4.22;;;10.00;99.90;;;;;;4972803;28;20043;-77
2023/01/11 03:46:05;;;;;;;9.15;4.65;;;10.00;99.90;;;;;;4957034;28;20038;-77
2023/01/11 03:48:47;;;;;;;6.13;4.20;;;10.00;99.90;;;;;;4957191;28;20038;-77
2023/01/11 03:51:17;;;;;;;7.85;4.50;;;10.00;99.90;;;;;;4970147;28;20086;-77
2023/01/11 03:53:46;;;;;;;5.80;3.95;;;10.10;99.90;;;;;;4973294;28;20051;-77
2023/01/11 03:56:15;;;;;;;5.20;3.80;;;10.00;99.90;;;;;;4973399;28;20126;-77
2023/01/11 03:58:41;;;;;;;4.50;3.28;;;10.00;99.90;;;;;;4953622;28;20394;-77
2023/01/11 04:01:07;;;;;;;5.40;3.40;;;10.10;99.90;;;;;;4945557;28;20030;-77
2023/01/11 04:03:32;;;;;;;3.70;2.75;;;10.10;99.90;;;;;;4971279;28;20118;-77
2023/01/11 04:06:00;;;;;;;4.88;3.30;;;10.10;99.90;;;;;;4957327;28;20473;-77
2023/01/11 04:08:25;;;;;;;3.90;3.00;;;10.20;99.90;;;;;;4972919;28;20105;-77
2023/01/11 04:10:51;;;;;;;4.80;3.15;;;10.20;99.90;;;;;;4969545;28;20498;-78
2023/01/11 04:13:17;;;;;;;5.40;3.53;;;10.20;99.90;;;;;;4971489;28;20489;-78
2023/01/11 04:15:42;;;;;;;4.80;3.50;;;10.30;99.90;;;;;;4941778;29;20039;-78
2023/01/11 04:18:08;;;;;;;7.25;4.50;;;10.30;99.90;;;;;;4971762;28;20038;-78
2023/01/11 04:20:35;;;;;;;6.60;4.32;;;10.30;99.90;;;;;;4970517;28;20512;-78
2023/01/11 04:23:02;;;;;;;8.65;5.18;;;10.30;99.90;;;;;;4954623;28;20125;-78
2023/01/11 04:25:27;;;;;;;8.02;6.10;;;10.30;99.90;;;;;;4967089;28;20097;-77
2023/01/11 04:27:53;;;;;;;7.95;5.97;;;10.30;99.90;;;;;;4969883;28;20074;-78
2023/01/11 04:30:19;;;;;;;8.93;6.57;;;10.40;99.90;;;;;;4970179;28;20485;-77
2023/01/11 04:32:45;;;;;;;11.02;7.05;;;10.40;99.90;;;;;;4971475;28;20584;-78
2023/01/11 04:35:10;;;;;;;12.45;7.45;;;10.40;99.90;;;;;;4964326;28;20035;-78
2023/01/11 04:37:36;;;;;;;12.20;7.80;;;10.40;99.90;;;;;;4970411;28;20218;-78
2023/01/11 04:40:02;;;;;;;10.90;7.25;;;10.40;99.90;;;;;;4955648;28;20050;-78
2023/01/11 04:42:28;;;;;;;15.43;8.60;;;10.40;99.90;;;;;;4955568;28;20119;-78
2023/01/11 04:44:53;;;;;;;14.05;8.98;;;10.40;99.90;;;;;;4969025;28;20036;-78
2023/01/11 04:47:21;;;;;;;16.23;8.93;;;10.40;99.90;;;;;;4955850;28;20035;-78
2023/01/11 04:49:47;;;;;;;14.05;9.65;;;10.40;99.90;;;;;;4968084;28;20046;-78
2023/01/11 04:52:15;;;;;;;17.58;9.75;;;10.40;99.90;;;;;;4961745;28;20070;-78
2023/01/11 04:54:41;;;;;;;16.50;9.07;;;10.40;99.90;;;;;;4966811;28;20054;-78
2023/01/11 04:57:13;;;;;;;15.95;9.50;;;10.40;99.90;;;;;;4964105;28;20035;-78
2023/01/11 04:59:39;;;;;;;17.02;10.10;;;10.40;99.90;;;;;;4972085;28;20035;-78
2023/01/11 05:02:05;;;;;;;17.50;8.90;;;10.40;99.90;;;;;;4969648;28;20047;-78
2023/01/11 05:04:30;;;;;;;19.05;8.82;;;10.40;99.90;;;;;;4956111;28;20039;-78
2023/01/11 05:06:56;;;;;;;16.55;8.48;;;10.40;99.90;;;;;;4954978;28;20519;-78
2023/01/11 05:09:22;;;;;;;18.35;7.95;;;10.40;99.90;;;;;;4955708;28;20488;-78
2023/01/11 05:11:47;;;;;;;24.92;8.20;;;10.40;99.90;;;;;;4970899;28;20510;-77
2023/01/11 05:14:14;;;;;;;20.85;7.25;;;10.40;99.90;;;;;;4971471;28;20405;-77
2023/01/11 05:16:40;;;;;;;19.25;5.57;;;10.40;99.90;;;;;;4971250;28;20490;-78
2023/01/11 05:19:06;;;;;;;19.60;4.93;;;10.40;99.90;;;;;;4970679;28;20057;-78
2023/01/11 05:21:38;;;;;;;19.30;5.10;;;10.40;99.90;;;;;;4955059;28;20034;-78
2023/01/11 05:24:05;;;;;;;17.63;4.43;;;10.30;99.90;;;;;;4954181;28;20513;-77
2023/01/11 05:26:33;;;;;;;18.92;3.95;;;10.30;99.90;;;;;;4954373;28;20509;-78
2023/01/11 05:29:01;;;;;;;11.32;3.38;;;10.30;99.90;;;;;;4953233;28;20497;-79
2023/01/11 05:31:27;;;;;;;21.90;3.90;;;10.30;99.90;;;;;;4971656;28;20049;-78
2023/01/11 05:33:56;;;;;;;13.23;3.83;;;10.20;99.90;;;;;;4971621;28;20133;-78
2023/01/11 05:36:24;;;;;;;16.73;3.50;;;10.20;99.90;;;;;;4970434;28;20274;-78
2023/01/11 05:38:51;;;;;;;17.40;3.50;;;10.20;99.90;;;;;;4947324;28;20046;-78
2023/01/11 05:41:18;;;;;;;19.38;4.20;;;10.10;99.90;;;;;;4953142;28;20030;-78
2023/01/11 05:46:31;;;;;;;18.30;3.70;;;10.00;99.90;;;;;;4970420;28;20485;-78
2023/01/11 05:48:57;;;;;;;14.15;3.22;;;10.00;99.90;;;;;;4967668;28;20038;-78
2023/01/11 05:51:24;;;;;;;21.13;4.30;;;10.00;99.90;;;;;;4970012;28;20053;-78
2023/01/11 05:53:51;;;;;;;24.63;4.57;;;10.00;99.90;;;;;;4970119;28;20062;-78
2023/01/11 05:56:18;;;;;;;29.17;4.72;;;10.00;99.90;;;;;;4945562;28;20117;-78
2023/01/11 05:58:47;;;;;;;20.35;4.43;;;10.00;99.90;;;;;;4969733;28;20042;-78
2023/01/11 06:01:13;;;;;;;22.27;4.05;;;10.00;99.90;;;;;;4970952;28;20051;-79
2023/01/11 06:03:39;;;;;;;23.60;4.07;;;10.00;99.90;;;;;;4962646;28;20405;-79
2023/01/11 06:06:05;;;;;;;22.30;4.28;;;10.00;99.90;;;;;;4971906;28;20049;-78
2023/01/11 06:08:30;;;;;;;34.55;5.38;;;10.00;99.90;;;;;;4953600;28;20126;-79
2023/01/11 06:10:57;;;;;;;23.80;4.00;;;10.00;99.90;;;;;;4971136;28;20105;-78
2023/01/11 06:13:26;;;;;;;24.95;4.22;;;9.90;99.90;;;;;;4967761;28;20094;-79
2023/01/11 06:15:52;;;;;;;21.92;4.30;;;9.90;99.90;;;;;;4940160;28;20513;-78
2023/01/11 06:18:18;;;;;;;25.00;4.05;;;9.90;99.90;;;;;;4971265;28;20031;-79
2023/01/11 06:20:51;;;;;;;26.15;4.88;;;9.90;99.90;;;;;;4954107;28;20039;-78
2023/01/11 06:23:16;;;;;;;32.35;5.50;;;9.90;99.90;;;;;;4966673;28;20035;-78
2023/01/11 06:25:43;;;;;;;21.67;4.28;;;9.90;99.90;;;;;;4953416;28;20497;-79
2023/01/11 06:28:09;;;;;;;21.98;5.07;;;9.90;99.90;;;;;;4940192;29;20079;-78
2023/01/11 06:30:34;;;;;;;22.70;4.85;;;9.90;99.90;;;;;;4956774;28;20035;-79
2023/01/11 06:33:06;;;;;;;35.17;5.45;;;9.90;99.90;;;;;;4973861;28;20038;-78
2023/01/11 06:35:40;;;;;;;25.65;3.95;;;9.90;99.90;;;;;;4973934;28;20047;-79
2023/01/11 06:38:08;;;;;;;25.08;4.55;;;9.90;99.90;;;;;;4974826;28;20038;-78
2023/01/11 06:40:35;;;;;;;22.35;3.78;;;9.90;99.90;;;;;;4957395;28;20046;-79
2023/01/11 06:43:01;;;;;;;23.85;4.03;;;9.90;99.90;;;;;;4968660;28;20090;-79
2023/01/11 06:45:26;;;;;;;19.33;3.63;;;9.80;99.90;;;;;;4969551;28;20043;-79
2023/01/11 06:47:52;;;;;;;28.45;4.63;;;9.80;99.90;;;;;;4955646;29;20058;-78
2023/01/11 06:50:18;;;;;;;26.50;4.68;;;9.80;99.90;;;;;;4968957;28;20035;-78
2023/01/11 06:52:54;;;;;;;26.70;4.00;;;9.80;99.90;;;;;;4973367;28;20042;-77
2023/01/11 06:55:21;;;;;;;24.67;4.53;;;9.80;99.90;;;;;;4965219;28;20050;-77
2023/01/11 06:57:46;;;;;;;28.48;5.10;;;9.70;99.90;;;;;;4966547;28;20031;-80
2023/01/11 07:00:13;;;;;;;21.92;4.15;;;9.70;99.90;;;;;;4955414;28;20045;-77
2023/01/11 07:02:38;;;;;;;19.83;4.60;;;9.60;99.90;;;;;;4971852;28;20121;-77
2023/01/11 07:05:04;;;;;;;21.88;5.13;;;9.70;99.90;;;;;;4974087;28;20461;-77
2023/01/11 07:07:30;;;;;;;27.27;5.13;;;9.60;99.90;;;;;;4973831;28;20046;-77
2023/01/11 07:09:55;;;;;;;32.60;5.63;;;9.60;99.90;;;;;;4973935;28;20151;-77
2023/01/11 07:12:21;;;;;;;23.13;5.38;;;9.60;99.90;;;;;;4958211;28;20039;-77
2023/01/11 07:14:46;;;;;;;23.17;5.80;;;9.60;99.90;;;;;;4969974;28;20039;-77
2023/01/11 07:17:12;;;;;;;24.23;5.05;;;9.60;99.90;;;;;;4986967;28;20042;-77
2023/01/11 07:19:37;;;;;;;23.35;5.15;;;9.60;99.90;;;;;;4973855;28;20485;-77
2023/01/11 07:22:03;;;;;;;17.40;4.63;;;9.60;99.90;;;;;;4974072;28;20088;-77
2023/01/11 07:24:29;;;;;;;19.45;4.55;;;9.60;99.90;;;;;;4973886;28;20039;-77
2023/01/11 07:26:55;;;;;;;24.33;4.68;;;9.60;99.90;;;;;;4973242;28;20045;-75
2023/01/11 07:29:21;;;;;;;24.50;4.80;;;9.50;99.90;;;;;;4950702;28;20038;-77
2023/01/11 07:31:47;;;;;;;20.50;4.43;;;9.50;99.90;;;;;;4972597;28;20042;-78
2023/01/11 07:34:12;;;;;;;26.20;5.03;;;9.50;99.90;;;;;;4955614;28;20515;-78
2023/01/11 07:36:38;;;;;;;19.33;4.22;;;9.50;99.90;;;;;;4973217;28;20054;-79
2023/01/11 07:39:05;;;;;;;16.40;3.67;;;9.40;99.90;;;;;;4945053;28;20035;-78
2023/01/11 07:44:15;;;;;;;17.25;3.78;;;9.30;99.90;;;;;;4972663;28;20049;-77
2023/01/11 07:46:40;;;;;;;22.50;4.45;;;9.30;99.90;;;;;;4955661;28;20035;-77
2023/01/11 07:49:06;;;;;;;19.42;3.30;;;9.20;99.90;;;;;;4972782;28;20074;-78
2023/01/11 07:51:31;;;;;;;18.38;3.53;;;9.20;99.90;;;;;;4972508;28;20121;-78
2023/01/11 07:54:01;;;;;;;14.60;3.47;;;9.10;99.90;;;;;;4973090;28;20035;-77
2023/01/11 07:56:30;;;;;;;19.45;3.47;;;9.10;99.90;;;;;;4957057;28;20070;-77
2023/01/11 07:58:55;;;;;;;17.55;3.75;;;9.00;99.90;;;;;;4972746;28;20074;-77
2023/01/11 08:01:22;;;;;;;14.73;3.60;;;9.00;99.90;;;;;;4982611;28;20488;-78
2023/01/11 08:03:48;;;;;;;14.48;3.05;;;9.00;99.90;;;;;;4987362;28;20119;-78
2023/01/11 08:06:14;;;;;;;17.40;3.35;;;8.90;99.90;;;;;;4954003;29;20082;-78
2023/01/11 08:08:40;;;;;;;24.13;3.97;;;8.90;99.90;;;;;;4963755;28;20039;-77
2023/01/11 08:16:35;;;;;;;23.63;4.10;;;8.90;99.90;;;;;;4967723;28;20062;-79
2023/01/11 08:19:01;;;;;;;22.58;4.30;;;8.80;99.90;;;;;;4964073;28;20402;-78
2023/01/11 08:21:27;;;;;;;20.63;3.72;;;8.80;99.90;;;;;;4970171;28;20034;-79
2023/01/11 08:23:54;;;;;;;19.60;4.40;;;8.90;99.90;;;;;;4969012;28;20041;-77
2023/01/11 08:26:22;;;;;;;17.60;4.22;;;8.90;99.90;;;;;;4972111;28;20054;-78
2023/01/11 08:28:47;;;;;;;19.17;3.92;;;8.90;99.90;;;;;;4970552;28;20047;-79
2023/01/11 08:31:13;;;;;;;18.98;4.40;;;8.90;99.90;;;;;;4972354;28;20031;-79
2023/01/11 08:33:39;;;;;;;18.85;4.20;;;8.90;99.90;;;;;;4967175;28;20043;-79
2023/01/11 08:36:06;;;;;;;20.13;3.97;;;9.00;99.90;;;;;;4971331;28;20062;-78
2023/01/11 08:38:32;;;;;;;15.77;4.07;;;9.00;99.90;;;;;;4955582;28;20034;-78
2023/01/11 08:40:58;;;;;;;19.02;3.83;;;9.00;99.90;;;;;;4972303;28;20409;-78
2023/01/11 08:43:23;;;;;;;20.75;4.32;;;9.00;99.90;;;;;;4973455;28;20449;-79
2023/01/11 08:45:50;;;;;;;22.48;3.78;;;9.00;99.90;;;;;;4956710;28;20097;-79
2023/01/11 08:48:15;;;;;;;17.08;3.30;;;8.90;99.90;;;;;;4970379;28;20054;-78
2023/01/11 08:50:43;;;;;;;17.83;3.65;;;8.90;99.90;;;;;;4972681;28;20039;-78
2023/01/11 08:53:09;;;;;;;14.93;3.20;;;8.90;99.90;;;;;;4971778;28;20046;-78
2023/01/11 08:55:35;;;;;;;17.42;3.65;;;8.80;99.90;;;;;;4971692;28;20118;-78
2023/01/11 08:58:01;;;;;;;16.55;3.50;;;8.80;99.90;;;;;;4955941;28;20403;-79
2023/01/11 09:00:26;;;;;;;11.93;2.75;;;8.70;99.90;;;;;;4971968;28;20070;-78
2023/01/11 09:02:52;;;;;;;15.38;3.75;;;8.70;99.90;;;;;;4955701;28;20043;-79
2023/01/11 09:05:17;;;;;;;13.82;3.10;;;8.60;99.90;;;;;;4970873;28;20038;-78
2023/01/11 09:07:43;;;;;;;12.85;2.97;;;8.60;99.90;;;;;;4968475;28;20079;-78
2023/01/11 09:10:09;;;;;;;15.45;3.22;;;8.60;99.90;;;;;;4970842;28;20043;-78
2023/01/11 09:12:35;;;;;;;17.77;3.40;;;8.50;99.90;;;;;;4971369;28;20046;-78
2023/01/11 09:15:01;;;;;;;15.60;3.00;;;8.50;99.90;;;;;;4963039;28;20053;-78
2023/01/11 09:17:26;;;;;;;12.45;3.10;;;8.40;99.90;;;;;;4955330;28;20042;-78
2023/01/11 09:19:52;;;;;;;20.38;3.60;;;8.40;99.90;;;;;;4954801;28;20046;-78
2023/01/11 09:22:18;;;;;;;17.38;3.65;;;8.40;99.90;;;;;;4971236;28;20031;-78
2023/01/11 09:24:43;;;;;;;12.32;3.10;;;8.30;99.90;;;;;;4951423;28;20046;-79
2023/01/11 09:27:10;;;;;;;20.52;4.30;;;8.30;99.90;;;;;;4961132;28;20130;-78
2023/01/11 09:29:36;;;;;;;15.35;3.67;;;8.20;99.90;;;;;;4961478;28;20057;-77
2023/01/11 09:32:01;;;;;;;18.88;3.90;;;8.20;99.90;;;;;;4972855;28;20042;-78
2023/01/11 09:34:27;;;;;;;13.23;3.38;;;8.20;99.90;;;;;;4970907;28;20049;-78
2023/01/11 09:36:55;;;;;;;16.17;4.05;;;8.20;99.90;;;;;;4970146;28;20041;-78
2023/01/11 09:39:24;;;;;;;23.13;4.28;;;8.20;99.90;;;;;;4969666;28;20039;-78
2023/01/11 09:42:06;;;;;;;14.00;3.80;;;8.30;99.90;;;;;;4969312;28;20042;-78
2023/01/11 09:44:40;;;;;;;16.17;3.65;;;8.40;99.90;;;;;;4954651;28;20448;-80
2023/01/11 09:47:43;;;;;;;16.33;3.80;;;8.50;99.90;;;;;;4964505;28;20072;-77
2023/01/11 09:50:25;;;;;;;12.40;3.83;;;8.60;99.90;;;;;;4953980;28;20054;-78
2023/01/11 09:53:03;;;;;;;23.52;4.40;;;8.70;99.90;;;;;;4970586;28;20411;-77
2023/01/11 09:55:38;;;;;;;18.60;4.53;;;8.80;99.90;;;;;;4970802;28;20053;-78
2023/01/11 09:58:21;;;;;;;19.58;4.78;;;8.80;99.90;;;;;;4970613;28;20122;-78
2023/01/11 10:00:55;;;;;;;;;;;8.90;99.90;;;;;;4972095;28;20047;-77
2023/01/11 10:03:47;;;;;;;22.70;4.50;;;8.90;99.90;;;;;;4966457;28;19921;-77
2023/01/11 10:06:20;;;;;;;14.03;3.50;;;8.80;99.90;;;;;;4957791;28;20489;-77
2023/01/11 10:08:56;;;;;;;14.75;3.65;;;8.80;99.90;;;;;;4956713;28;20034;-78
2023/01/11 10:12:07;;;;;;;18.05;3.47;;;8.90;99.90;;;;;;4990155;28;20083;-78
2023/01/11 10:15:59;;;;;;;16.67;3.78;;;8.90;99.90;;;;;;4990336;28;20050;-78
2023/01/11 10:19:15;;;;;;;19.05;4.25;;;9.00;99.90;;;;;;4987381;28;20054;-79
2023/01/11 10:25:41;;;;;;;17.27;3.65;;;9.10;99.90;;;;;;4989569;28;20119;-77
2023/01/11 10:28:24;;;;;;;22.10;4.10;;;9.10;99.90;;;;;;4990275;28;20111;-78
2023/01/11 10:34:15;;;;;;;14.32;2.97;;;9.00;99.90;;;;;;4994426;28;20081;-79
2023/01/11 10:37:27;;;;;;;16.05;4.25;;;9.10;99.90;;;;;;4986651;28;20085;-77
2023/01/11 10:43:11;;;;;;;17.05;3.88;;;9.10;99.90;;;;;;4981147;28;20038;-78
2023/01/11 10:45:49;;;;;;;15.65;4.40;;;9.20;99.90;;;;;;4994499;28;20059;-79
2023/01/11 10:48:24;;;;;;;16.35;3.92;;;9.20;99.90;;;;;;4987418;28;20035;-79
2023/01/11 10:51:22;;;;;;;18.52;3.60;;;9.30;99.90;;;;;;4986619;28;20401;-79
2023/01/11 10:54:03;;;;;;;16.77;3.38;;;9.30;99.90;;;;;;4984168;28;20053;-78
2023/01/11 10:56:54;;;;;;;15.23;3.72;;;9.30;99.90;;;;;;4966217;28;20043;-78
2023/01/11 10:59:47;;;;;;;15.30;3.35;;;9.40;99.90;;;;;;4972107;28;20046;-78
2023/01/11 11:02:30;;;;;;;13.82;3.53;;;9.40;99.90;;;;;;4988170;28;20023;-77
2023/01/11 11:05:04;;;;;;;;;;;9.40;99.90;;;;;;4990865;28;20042;-76
2023/01/11 11:07:37;;;;;;;;;;;9.50;99.90;;;;;;4989441;28;19941;-81
2023/01/11 11:10:31;;;;;;;17.10;3.70;;;9.50;99.90;;;;;;4973941;28;19949;-79
2023/01/11 11:13:11;;;;;;;14.25;3.30;;;9.50;99.90;;;;;;4972342;28;20043;-79
2023/01/11 11:15:54;;;;;;;13.30;3.15;;;9.50;99.90;;;;;;4965388;28;20039;-78
2023/01/11 11:18:19;;;;;;;21.33;3.55;;;9.40;99.90;;;;;;4977527;28;20079;-81
2023/01/11 11:20:45;;;;;;;10.25;3.47;;;9.30;99.90;;;;;;4967955;28;20067;-78
2023/01/11 11:23:18;;;;;;;14.70;3.83;;;9.30;99.90;;;;;;4990912;28;20038;-80
2023/01/11 11:25:48;;;;;;;11.73;2.67;;;9.20;99.90;;;;;;4994823;28;20050;-80
2023/01/11 11:28:26;;;;;;;14.07;3.47;;;9.30;99.90;;;;;;4977798;28;20078;-79
2023/01/11 11:30:54;;;;;;;14.15;3.42;;;9.40;99.90;;;;;;4977285;28;20256;-80
2023/01/11 11:33:23;;;;;;;15.02;3.05;;;9.50;99.90;;;;;;4973785;28;20036;-82
2023/01/11 11:36:03;;;;;;;15.15;2.95;;;9.70;99.90;;;;;;4989620;28;20055;-80
2023/01/11 11:38:33;;;;;;;13.45;3.10;;;9.90;99.90;;;;;;4977429;28;20043;-79
2023/01/11 11:41:09;;;;;;;13.57;3.17;;;9.90;99.90;;;;;;4990661;28;20090;-81
2023/01/11 11:43:37;;;;;;;14.70;3.17;;;10.10;99.90;;;;;;4975909;28;20042;-80
2023/01/11 11:46:13;;;;;;;14.85;3.85;;;10.40;99.90;;;;;;4973155;28;20188;-80
2023/01/11 11:48:40;;;;;;;16.08;3.80;;;10.60;99.90;;;;;;4986178;28;20106;-79
2023/01/11 11:51:12;;;;;;;15.90;3.65;;;10.70;99.90;;;;;;4983951;28;20046;-80
2023/01/11 11:53:54;;;;;;;13.90;2.88;;;11.00;99.90;;;;;;4992239;28;20051;-78
2023/01/11 11:56:23;;;;;;;16.95;3.72;;;11.30;99.90;;;;;;4955666;29;20035;-78
2023/01/11 11:58:49;;;;;;;14.05;2.67;;;11.60;99.90;;;;;;4984436;28;20046;-80
2023/01/11 12:01:34;;;;;;;15.82;3.13;;;11.90;99.90;;;;;;4988819;28;20039;-78
2023/01/11 12:04:12;;;;;;;12.20;2.83;;;11.90;99.90;;;;;;4977023;28;20069;-77
2023/01/11 12:06:40;;;;;;;12.05;2.83;;;12.00;99.90;;;;;;4982719;28;20046;-78
2023/01/11 12:09:29;;;;;;;16.80;3.17;;;12.10;99.90;;;;;;4989227;28;20066;-78
2023/01/11 12:11:55;;;;;;;15.38;3.63;;;12.00;99.90;;;;;;4990713;28;20043;-78
2023/01/11 12:14:34;;;;;;;18.25;2.90;;;12.00;99.90;;;;;;4964600;28;20074;-78
2023/01/11 12:17:19;;;;;;;11.95;3.08;;;11.90;99.90;;;;;;4988886;28;20043;-78
2023/01/11 12:19:46;;;;;;;11.02;2.95;;;11.90;99.90;;;;;;4972084;28;20165;-78
2023/01/11 12:22:19;;;;;;;15.57;3.17;;;12.00;99.90;;;;;;4974567;28;20105;-79
2023/01/11 12:24:46;;;;;;;;;;;12.20;99.90;;;;;;4985803;28;20039;-78
2023/01/11 12:27:32;;;;;;;13.35;2.67;;;12.40;99.90;;;;;;4987686;28;20091;-80
2023/01/11 12:30:07;;;;;;;10.43;2.03;;;12.50;99.90;;;;;;4973656;28;20133;-79
2023/01/11 12:32:39;;;;;;;11.75;2.97;;;12.50;99.90;;;;;;4971185;28;20073;-77
2023/01/11 12:35:27;;;;;;;11.90;2.58;;;12.20;99.90;;;;;;4986586;28;20069;-79
2023/01/11 12:38:09;;;;;;;12.70;2.90;;;12.00;99.90;;;;;;4969740;28;20042;-77
2023/01/11 12:40:53;;;;;;;13.43;2.75;;;11.80;99.90;;;;;;4969707;28;20039;-77
2023/01/11 12:43:29;;;;;;;;;;;11.40;99.90;;;;;;4971474;28;20490;-78
2023/01/11 12:46:03;;;;;;;14.43;2.95;;;11.00;99.90;;;;;;4971975;28;20383;-79
2023/01/11 12:48:34;;;;;;;12.27;2.88;;;10.70;99.90;;;;;;4970044;28;20042;-77
2023/01/11 12:51:20;;;;;;;12.70;2.50;;;10.50;99.90;;;;;;4962098;28;20043;-79
2023/01/11 12:54:15;;;;;;;16.95;3.08;;;10.30;99.90;;;;;;4970713;28;20102;-78
2023/01/11 12:56:43;;;;;;;14.45;2.78;;;10.20;99.90;;;;;;4970207;28;20114;-78
2023/01/11 12:59:25;;;;;;;14.60;2.92;;;10.30;99.90;;;;;;4969165;28;20400;-77
2023/01/11 13:02:19;;;;;;;15.13;3.63;;;10.20;99.90;;;;;;4970128;28;20413;-78
2023/01/11 13:05:06;;;;;;;16.33;2.75;;;10.10;99.90;;;;;;4964507;28;20102;-80
2023/01/11 13:07:58;;;;;;;14.43;3.42;;;10.00;99.90;;;;;;4969108;28;20055;-79
2023/01/11 13:10:29;;;;;;;13.38;2.53;;;9.80;99.90;;;;;;4968272;28;20508;-79
2023/01/11 13:12:59;;;;;;;14.48;2.85;;;9.70;99.90;;;;;;4957630;28;20054;-77
2023/01/11 13:15:47;;;;;;;12.85;2.78;;;9.50;99.90;;;;;;4973117;28;20042;-77
2023/01/11 13:18:27;;;;;;;11.40;2.90;;;9.40;99.90;;;;;;4964986;28;20064;-78
2023/01/11 13:20:59;;;;;;;14.40;3.30;;;9.30;99.90;;;;;;4953733;28;20043;-78
2023/01/11 13:23:53;;;;;;;12.90;3.08;;;9.30;99.90;;;;;;4970361;28;20434;-78
2023/01/11 13:26:27;;;;;;;15.60;2.83;;;9.20;99.90;;;;;;4964522;28;20055;-79
2023/01/11 13:29:18;;;;;;;16.85;2.88;;;9.10;99.90;;;;;;4969900;28;20047;-78
2023/01/11 13:31:47;;;;;;;13.98;2.75;;;9.20;99.90;;;;;;4966154;28;20054;-79
2023/01/11 13:34:26;;;;;;;14.60;2.90;;;9.10;99.90;;;;;;4956208;28;20039;-78
2023/01/11 13:36:58;;;;;;;12.82;2.63;;;9.10;99.90;;;;;;4957380;28;20453;-78
2023/01/11 13:39:36;;;;;;;13.13;2.42;;;9.20;99.90;;;;;;4957172;28;20042;-78
2023/01/11 13:42:10;;;;;;;16.58;3.50;;;9.20;99.90;;;;;;4971019;28;20047;-77
2023/01/11 13:44:46;;;;;;;12.88;3.08;;;9.10;99.90;;;;;;4973454;28;20051;-79